TJBQ/BQN METAR and TAF weather

Enter ICAO airport designator
Station Type Date Time Source
TJBQ METAR 2023/11/30 22:50 UTC NOAA

TJBQ 302250Z 10009KT 10SM 26/21 A3001


Station Type Date Time Source
TJBQ Decoded METAR 2023/11/30 22:50 UTC NOAA

Aquadilla, Rafael Hernandez Airport, PR, United States (TJBQ) 18-30N 067-08W 69M
Nov 30, 2023 - 05:50 PM EST / 2023.11.30 2250 UTC
Wind: from the E (100 degrees) at 10 MPH (9 KT):0
Visibility: 10 mile(s):0
Temperature: 78 F (26 C)
Dew Point: 69 F (21 C)
Relative Humidity: 73%
Pressure (altimeter): 30.01 in. Hg (1016 hPa)
ob: TJBQ 302250Z 10009KT 10SM 26/21 A3001
cycle: 23

Station Type Date Time Source
TJBQ TAF 2023/11/30 18:33 UTC NOAA

TAF TJBQ 301729Z 3018/0118 07014G20KT P6SM VCSH SCT030 SCT050
FM302300 10008KT P6SM VCSH SCT035 BKN050
FM011400 08015G22KT P6SM VCSH SCT030 SCT050

Example: see airport list